sensor_id;sensor_type;location;lat;lon;timestamp;P1;durP1;ratioP1;P2;durP2;ratioP2
39896;SDS011;25567;48.276;14.242;2022-10-16T00:00:47;25.58;;;10.80;;
39896;SDS011;25567;48.276;14.242;2022-10-16T00:03:14;20.45;;;11.52;;
39896;SDS011;25567;48.276;14.242;2022-10-16T00:05:41;25.08;;;12.35;;
39896;SDS011;25567;48.276;14.242;2022-10-16T00:08:10;21.70;;;10.68;;
39896;SDS011;25567;48.276;14.242;2022-10-16T00:10:38;28.85;;;11.57;;
39896;SDS011;25567;48.276;14.242;2022-10-16T00:13:05;26.08;;;11.80;;
39896;SDS011;25567;48.276;14.242;2022-10-16T00:15:33;27.65;;;10.80;;
39896;SDS011;25567;48.276;14.242;2022-10-16T00:18:03;30.63;;;11.35;;
39896;SDS011;25567;48.276;14.242;2022-10-16T00:20:30;20.88;;;10.98;;
39896;SDS011;25567;48.276;14.242;2022-10-16T00:23:00;26.42;;;10.20;;
39896;SDS011;25567;48.276;14.242;2022-10-16T00:25:26;29.77;;;10.00;;
39896;SDS011;25567;48.276;14.242;2022-10-16T00:27:53;32.47;;;11.00;;
39896;SDS011;25567;48.276;14.242;2022-10-16T00:30:20;29.58;;;11.13;;
39896;SDS011;25567;48.276;14.242;2022-10-16T00:32:47;20.98;;;10.48;;
39896;SDS011;25567;48.276;14.242;2022-10-16T00:35:14;26.60;;;10.98;;
39896;SDS011;25567;48.276;14.242;2022-10-16T00:37:40;25.15;;;9.50;;
39896;SDS011;25567;48.276;14.242;2022-10-16T00:40:07;18.88;;;9.57;;
39896;SDS011;25567;48.276;14.242;2022-10-16T00:42:34;17.77;;;10.15;;
39896;SDS011;25567;48.276;14.242;2022-10-16T00:45:02;26.48;;;10.43;;
39896;SDS011;25567;48.276;14.242;2022-10-16T00:50:04;21.42;;;9.80;;
39896;SDS011;25567;48.276;14.242;2022-10-16T00:52:33;16.10;;;9.23;;
39896;SDS011;25567;48.276;14.242;2022-10-16T00:55:01;25.30;;;10.02;;
39896;SDS011;25567;48.276;14.242;2022-10-16T00:57:30;19.73;;;10.48;;
39896;SDS011;25567;48.276;14.242;2022-10-16T00:59:57;16.23;;;9.32;;
39896;SDS011;25567;48.276;14.242;2022-10-16T01:02:25;17.70;;;9.13;;
39896;SDS011;25567;48.276;14.242;2022-10-16T01:04:52;19.08;;;10.18;;
39896;SDS011;25567;48.276;14.242;2022-10-16T01:13:18;17.00;;;9.68;;
39896;SDS011;25567;48.276;14.242;2022-10-16T01:21:02;20.10;;;10.07;;
39896;SDS011;25567;48.276;14.242;2022-10-16T01:29:05;21.40;;;10.10;;
39896;SDS011;25567;48.276;14.242;2022-10-16T01:31:39;16.40;;;9.20;;
39896;SDS011;25567;48.276;14.242;2022-10-16T01:34:10;15.20;;;8.98;;
39896;SDS011;25567;48.276;14.242;2022-10-16T01:36:42;31.05;;;9.07;;
39896;SDS011;25567;48.276;14.242;2022-10-16T01:39:14;30.42;;;10.13;;
39896;SDS011;25567;48.276;14.242;2022-10-16T01:41:47;23.45;;;10.07;;
39896;SDS011;25567;48.276;14.242;2022-10-16T01:44:21;46.90;;;10.13;;
39896;SDS011;25567;48.276;14.242;2022-10-16T01:46:54;41.90;;;9.90;;
39896;SDS011;25567;48.276;14.242;2022-10-16T01:49:23;25.70;;;9.18;;
39896;SDS011;25567;48.276;14.242;2022-10-16T01:51:54;17.38;;;8.90;;
39896;SDS011;25567;48.276;14.242;2022-10-16T01:54:23;15.90;;;8.75;;
39896;SDS011;25567;48.276;14.242;2022-10-16T01:56:54;19.50;;;8.95;;
39896;SDS011;25567;48.276;14.242;2022-10-16T01:59:23;16.35;;;8.65;;
39896;SDS011;25567;48.276;14.242;2022-10-16T02:01:52;16.40;;;9.35;;
39896;SDS011;25567;48.276;14.242;2022-10-16T02:04:27;18.20;;;9.13;;
39896;SDS011;25567;48.276;14.242;2022-10-16T02:06:57;17.67;;;9.32;;
39896;SDS011;25567;48.276;14.242;2022-10-16T02:09:25;17.90;;;9.25;;
39896;SDS011;25567;48.276;14.242;2022-10-16T02:11:53;22.90;;;9.07;;
39896;SDS011;25567;48.276;14.242;2022-10-16T02:14:22;18.88;;;10.25;;
39896;SDS011;25567;48.276;14.242;2022-10-16T02:16:51;19.42;;;9.75;;
39896;SDS011;25567;48.276;14.242;2022-10-16T02:19:17;18.70;;;9.77;;
39896;SDS011;25567;48.276;14.242;2022-10-16T02:21:49;25.85;;;10.98;;
39896;SDS011;25567;48.276;14.242;2022-10-16T02:24:26;23.77;;;11.52;;
39896;SDS011;25567;48.276;14.242;2022-10-16T02:32:45;24.05;;;10.38;;
39896;SDS011;25567;48.276;14.242;2022-10-16T02:35:16;23.25;;;9.50;;
39896;SDS011;25567;48.276;14.242;2022-10-16T02:37:45;15.38;;;9.20;;
39896;SDS011;25567;48.276;14.242;2022-10-16T02:40:13;17.33;;;8.68;;
39896;SDS011;25567;48.276;14.242;2022-10-16T02:42:49;22.00;;;9.82;;
39896;SDS011;25567;48.276;14.242;2022-10-16T02:45:18;19.48;;;10.48;;
39896;SDS011;25567;48.276;14.242;2022-10-16T02:47:45;19.33;;;9.32;;
39896;SDS011;25567;48.276;14.242;2022-10-16T02:50:11;17.95;;;11.02;;
39896;SDS011;25567;48.276;14.242;2022-10-16T02:52:38;30.52;;;10.55;;
39896;SDS011;25567;48.276;14.242;2022-10-16T02:55:05;41.97;;;11.20;;
39896;SDS011;25567;48.276;14.242;2022-10-16T02:57:32;29.50;;;11.15;;
39896;SDS011;25567;48.276;14.242;2022-10-16T02:59:59;21.67;;;10.63;;
39896;SDS011;25567;48.276;14.242;2022-10-16T03:02:25;20.92;;;9.75;;
39896;SDS011;25567;48.276;14.242;2022-10-16T03:04:52;22.00;;;9.95;;
39896;SDS011;25567;48.276;14.242;2022-10-16T03:07:19;26.42;;;10.27;;
39896;SDS011;25567;48.276;14.242;2022-10-16T03:09:45;45.03;;;10.48;;
39896;SDS011;25567;48.276;14.242;2022-10-16T03:12:12;33.83;;;10.30;;
39896;SDS011;25567;48.276;14.242;2022-10-16T03:14:38;24.90;;;10.52;;
39896;SDS011;25567;48.276;14.242;2022-10-16T03:17:06;27.00;;;10.95;;
39896;SDS011;25567;48.276;14.242;2022-10-16T03:19:33;23.45;;;10.10;;
39896;SDS011;25567;48.276;14.242;2022-10-16T03:22:01;38.80;;;10.63;;
39896;SDS011;25567;48.276;14.242;2022-10-16T03:24:27;28.38;;;11.55;;
39896;SDS011;25567;48.276;14.242;2022-10-16T03:26:54;22.48;;;10.85;;
39896;SDS011;25567;48.276;14.242;2022-10-16T03:29:21;33.97;;;11.88;;
39896;SDS011;25567;48.276;14.242;2022-10-16T03:31:47;23.85;;;11.57;;
39896;SDS011;25567;48.276;14.242;2022-10-16T03:34:15;24.67;;;12.18;;
39896;SDS011;25567;48.276;14.242;2022-10-16T03:36:42;33.85;;;12.35;;
39896;SDS011;25567;48.276;14.242;2022-10-16T03:39:09;22.10;;;12.10;;
39896;SDS011;25567;48.276;14.242;2022-10-16T03:41:35;23.63;;;12.05;;
39896;SDS011;25567;48.276;14.242;2022-10-16T03:44:02;25.45;;;11.27;;
39896;SDS011;25567;48.276;14.242;2022-10-16T03:46:28;27.95;;;12.30;;
39896;SDS011;25567;48.276;14.242;2022-10-16T03:48:55;27.13;;;11.20;;
39896;SDS011;25567;48.276;14.242;2022-10-16T03:51:22;31.67;;;12.43;;
39896;SDS011;25567;48.276;14.242;2022-10-16T03:53:49;42.50;;;13.82;;
39896;SDS011;25567;48.276;14.242;2022-10-16T03:56:16;29.67;;;12.07;;
39896;SDS011;25567;48.276;14.242;2022-10-16T03:58:42;34.95;;;11.85;;
39896;SDS011;25567;48.276;14.242;2022-10-16T04:01:09;24.58;;;11.85;;
39896;SDS011;25567;48.276;14.242;2022-10-16T04:03:36;26.35;;;12.05;;
39896;SDS011;25567;48.276;14.242;2022-10-16T04:06:02;22.75;;;12.10;;
39896;SDS011;25567;48.276;14.242;2022-10-16T04:08:29;21.77;;;11.30;;
39896;SDS011;25567;48.276;14.242;2022-10-16T04:10:56;41.90;;;10.77;;
39896;SDS011;25567;48.276;14.242;2022-10-16T04:13:22;33.50;;;11.75;;
39896;SDS011;25567;48.276;14.242;2022-10-16T04:15:49;21.77;;;10.77;;
39896;SDS011;25567;48.276;14.242;2022-10-16T04:18:16;28.40;;;10.13;;
39896;SDS011;25567;48.276;14.242;2022-10-16T04:20:42;21.75;;;11.00;;
39896;SDS011;25567;48.276;14.242;2022-10-16T04:23:09;28.27;;;10.57;;
39896;SDS011;25567;48.276;14.242;2022-10-16T04:25:36;29.75;;;9.82;;
39896;SDS011;25567;48.276;14.242;2022-10-16T04:28:02;25.45;;;7.47;;
39896;SDS011;25567;48.276;14.242;2022-10-16T04:30:29;41.53;;;10.07;;
39896;SDS011;25567;48.276;14.242;2022-10-16T04:32:56;33.03;;;9.55;;
39896;SDS011;25567;48.276;14.242;2022-10-16T04:35:23;23.13;;;9.98;;
39896;SDS011;25567;48.276;14.242;2022-10-16T04:37:49;23.98;;;10.60;;
39896;SDS011;25567;48.276;14.242;2022-10-16T04:40:16;19.20;;;10.88;;
39896;SDS011;25567;48.276;14.242;2022-10-16T04:42:43;28.02;;;10.98;;
39896;SDS011;25567;48.276;14.242;2022-10-16T04:45:10;26.95;;;10.13;;
39896;SDS011;25567;48.276;14.242;2022-10-16T04:47:42;23.27;;;9.90;;
39896;SDS011;25567;48.276;14.242;2022-10-16T04:50:09;24.13;;;11.25;;
39896;SDS011;25567;48.276;14.242;2022-10-16T04:52:35;29.10;;;11.43;;
39896;SDS011;25567;48.276;14.242;2022-10-16T04:55:02;27.77;;;11.18;;
39896;SDS011;25567;48.276;14.242;2022-10-16T04:57:29;27.10;;;11.85;;
39896;SDS011;25567;48.276;14.242;2022-10-16T04:59:56;32.13;;;12.63;;
39896;SDS011;25567;48.276;14.242;2022-10-16T05:02:23;31.08;;;12.80;;
39896;SDS011;25567;48.276;14.242;2022-10-16T05:04:49;34.28;;;12.73;;
39896;SDS011;25567;48.276;14.242;2022-10-16T05:07:16;34.05;;;13.15;;
39896;SDS011;25567;48.276;14.242;2022-10-16T05:09:43;27.15;;;12.52;;
39896;SDS011;25567;48.276;14.242;2022-10-16T05:12:09;33.42;;;13.48;;
39896;SDS011;25567;48.276;14.242;2022-10-16T05:14:39;47.03;;;13.38;;
39896;SDS011;25567;48.276;14.242;2022-10-16T05:17:06;53.97;;;14.00;;
39896;SDS011;25567;48.276;14.242;2022-10-16T05:19:33;29.83;;;12.68;;
39896;SDS011;25567;48.276;14.242;2022-10-16T05:21:59;32.25;;;14.02;;
39896;SDS011;25567;48.276;14.242;2022-10-16T05:24:26;32.90;;;14.07;;
39896;SDS011;25567;48.276;14.242;2022-10-16T05:26:53;55.22;;;14.77;;
39896;SDS011;25567;48.276;14.242;2022-10-16T05:29:23;56.35;;;15.00;;
39896;SDS011;25567;48.276;14.242;2022-10-16T05:31:50;37.90;;;14.85;;
39896;SDS011;25567;48.276;14.242;2022-10-16T05:34:18;36.10;;;13.63;;
39896;SDS011;25567;48.276;14.242;2022-10-16T05:36:45;45.85;;;14.85;;
39896;SDS011;25567;48.276;14.242;2022-10-16T05:39:13;30.75;;;13.70;;
39896;SDS011;25567;48.276;14.242;2022-10-16T05:41:41;37.85;;;14.90;;
39896;SDS011;25567;48.276;14.242;2022-10-16T05:44:08;38.47;;;13.70;;
39896;SDS011;25567;48.276;14.242;2022-10-16T05:46:35;39.97;;;14.05;;
39896;SDS011;25567;48.276;14.242;2022-10-16T05:49:01;32.78;;;13.95;;
39896;SDS011;25567;48.276;14.242;2022-10-16T05:51:28;36.72;;;13.80;;
39896;SDS011;25567;48.276;14.242;2022-10-16T05:53:55;40.78;;;13.82;;
39896;SDS011;25567;48.276;14.242;2022-10-16T05:56:21;66.07;;;15.77;;
39896;SDS011;25567;48.276;14.242;2022-10-16T05:58:48;54.20;;;15.55;;
39896;SDS011;25567;48.276;14.242;2022-10-16T06:01:16;61.80;;;15.88;;
39896;SDS011;25567;48.276;14.242;2022-10-16T06:03:44;47.25;;;16.33;;
39896;SDS011;25567;48.276;14.242;2022-10-16T06:06:12;34.80;;;14.90;;
39896;SDS011;25567;48.276;14.242;2022-10-16T06:08:42;34.88;;;15.10;;
39896;SDS011;25567;48.276;14.242;2022-10-16T06:11:13;72.50;;;16.35;;
39896;SDS011;25567;48.276;14.242;2022-10-16T06:13:42;58.22;;;14.75;;
39896;SDS011;25567;48.276;14.242;2022-10-16T06:16:09;48.25;;;14.35;;
39896;SDS011;25567;48.276;14.242;2022-10-16T06:18:37;70.10;;;15.43;;
39896;SDS011;25567;48.276;14.242;2022-10-16T06:21:07;67.65;;;17.70;;
39896;SDS011;25567;48.276;14.242;2022-10-16T06:23:36;60.50;;;14.45;;
39896;SDS011;25567;48.276;14.242;2022-10-16T06:26:04;41.67;;;15.68;;
39896;SDS011;25567;48.276;14.242;2022-10-16T06:28:34;81.65;;;16.73;;
39896;SDS011;25567;48.276;14.242;2022-10-16T06:31:02;72.22;;;15.70;;
39896;SDS011;25567;48.276;14.242;2022-10-16T06:33:34;46.47;;;13.70;;
39896;SDS011;25567;48.276;14.242;2022-10-16T06:38:30;29.70;;;13.63;;
39896;SDS011;25567;48.276;14.242;2022-10-16T06:40:57;54.70;;;14.38;;
39896;SDS011;25567;48.276;14.242;2022-10-16T06:43:24;61.65;;;14.57;;
39896;SDS011;25567;48.276;14.242;2022-10-16T06:45:52;44.05;;;14.60;;
39896;SDS011;25567;48.276;14.242;2022-10-16T06:48:20;34.00;;;15.25;;
39896;SDS011;25567;48.276;14.242;2022-10-16T06:50:55;62.55;;;16.17;;
39896;SDS011;25567;48.276;14.242;2022-10-16T06:53:23;55.58;;;17.20;;
39896;SDS011;25567;48.276;14.242;2022-10-16T06:55:50;71.30;;;16.88;;
39896;SDS011;25567;48.276;14.242;2022-10-16T06:58:17;61.03;;;17.30;;
39896;SDS011;25567;48.276;14.242;2022-10-16T07:00:44;54.60;;;18.58;;
39896;SDS011;25567;48.276;14.242;2022-10-16T07:03:11;90.30;;;21.35;;
39896;SDS011;25567;48.276;14.242;2022-10-16T07:05:39;56.05;;;19.27;;
39896;SDS011;25567;48.276;14.242;2022-10-16T07:08:07;69.05;;;22.35;;
39896;SDS011;25567;48.276;14.242;2022-10-16T07:10:34;68.18;;;20.58;;
39896;SDS011;25567;48.276;14.242;2022-10-16T07:13:01;79.93;;;24.92;;
39896;SDS011;25567;48.276;14.242;2022-10-16T07:15:28;52.38;;;21.30;;
39896;SDS011;25567;48.276;14.242;2022-10-16T07:17:55;51.78;;;22.98;;
39896;SDS011;25567;48.276;14.242;2022-10-16T07:20:21;54.45;;;24.45;;
39896;SDS011;25567;48.276;14.242;2022-10-16T07:22:48;95.53;;;26.90;;
39896;SDS011;25567;48.276;14.242;2022-10-16T07:25:15;115.00;;;24.92;;
39896;SDS011;25567;48.276;14.242;2022-10-16T07:27:42;58.97;;;23.70;;
39896;SDS011;25567;48.276;14.242;2022-10-16T07:30:09;69.93;;;23.77;;
39896;SDS011;25567;48.276;14.242;2022-10-16T07:32:35;101.30;;;31.08;;
39896;SDS011;25567;48.276;14.242;2022-10-16T07:35:03;85.30;;;29.63;;
39896;SDS011;25567;48.276;14.242;2022-10-16T07:37:29;104.38;;;33.90;;
39896;SDS011;25567;48.276;14.242;2022-10-16T07:39:56;98.28;;;31.00;;
39896;SDS011;25567;48.276;14.242;2022-10-16T07:42:23;91.82;;;32.58;;
39896;SDS011;25567;48.276;14.242;2022-10-16T07:44:49;106.75;;;38.03;;
39896;SDS011;25567;48.276;14.242;2022-10-16T07:47:16;97.97;;;37.30;;
39896;SDS011;25567;48.276;14.242;2022-10-16T07:49:43;114.85;;;38.10;;
39896;SDS011;25567;48.276;14.242;2022-10-16T07:52:09;101.18;;;34.60;;
39896;SDS011;25567;48.276;14.242;2022-10-16T07:54:36;101.88;;;34.60;;
39896;SDS011;25567;48.276;14.242;2022-10-16T07:57:02;120.45;;;40.15;;
39896;SDS011;25567;48.276;14.242;2022-10-16T07:59:29;102.43;;;37.88;;
39896;SDS011;25567;48.276;14.242;2022-10-16T08:01:56;121.70;;;42.97;;
39896;SDS011;25567;48.276;14.242;2022-10-16T08:04:22;102.20;;;40.15;;
39896;SDS011;25567;48.276;14.242;2022-10-16T08:06:49;113.82;;;41.58;;
39896;SDS011;25567;48.276;14.242;2022-10-16T08:09:16;120.65;;;43.83;;
39896;SDS011;25567;48.276;14.242;2022-10-16T08:11:42;106.18;;;41.60;;
39896;SDS011;25567;48.276;14.242;2022-10-16T08:14:09;117.20;;;44.08;;
39896;SDS011;25567;48.276;14.242;2022-10-16T08:16:36;104.50;;;41.50;;
39896;SDS011;25567;48.276;14.242;2022-10-16T08:19:02;115.93;;;42.65;;
39896;SDS011;25567;48.276;14.242;2022-10-16T08:21:29;96.82;;;37.45;;
39896;SDS011;25567;48.276;14.242;2022-10-16T08:23:56;89.60;;;34.38;;
39896;SDS011;25567;48.276;14.242;2022-10-16T08:26:24;69.40;;;31.23;;
39896;SDS011;25567;48.276;14.242;2022-10-16T08:28:51;54.75;;;25.20;;
39896;SDS011;25567;48.276;14.242;2022-10-16T08:31:19;56.13;;;23.73;;
39896;SDS011;25567;48.276;14.242;2022-10-16T08:33:46;43.88;;;22.60;;
39896;SDS011;25567;48.276;14.242;2022-10-16T08:36:14;42.70;;;21.55;;
39896;SDS011;25567;48.276;14.242;2022-10-16T08:38:42;31.52;;;17.63;;
39896;SDS011;25567;48.276;14.242;2022-10-16T08:41:18;32.40;;;16.85;;
39896;SDS011;25567;48.276;14.242;2022-10-16T08:46:38;28.27;;;14.77;;
39896;SDS011;25567;48.276;14.242;2022-10-16T08:49:27;27.95;;;15.27;;
39896;SDS011;25567;48.276;14.242;2022-10-16T08:51:54;30.95;;;16.48;;
39896;SDS011;25567;48.276;14.242;2022-10-16T08:57:10;36.33;;;18.20;;
39896;SDS011;25567;48.276;14.242;2022-10-16T08:59:49;45.00;;;17.60;;
39896;SDS011;25567;48.276;14.242;2022-10-16T09:02:27;32.47;;;15.95;;
39896;SDS011;25567;48.276;14.242;2022-10-16T09:13:28;15.95;;;10.00;;
39896;SDS011;25567;48.276;14.242;2022-10-16T09:16:11;16.65;;;10.65;;
39896;SDS011;25567;48.276;14.242;2022-10-16T09:18:52;19.08;;;9.90;;
39896;SDS011;25567;48.276;14.242;2022-10-16T09:21:36;16.20;;;8.00;;
39896;SDS011;25567;48.276;14.242;2022-10-16T09:24:16;14.75;;;8.80;;
39896;SDS011;25567;48.276;14.242;2022-10-16T09:26:45;16.02;;;8.48;;
39896;SDS011;25567;48.276;14.242;2022-10-16T09:29:13;17.80;;;9.32;;
39896;SDS011;25567;48.276;14.242;2022-10-16T09:31:46;14.23;;;8.73;;
39896;SDS011;25567;48.276;14.242;2022-10-16T09:34:17;14.80;;;9.43;;
39896;SDS011;25567;48.276;14.242;2022-10-16T09:36:55;15.43;;;8.73;;
39896;SDS011;25567;48.276;14.242;2022-10-16T09:39:25;13.50;;;7.47;;
39896;SDS011;25567;48.276;14.242;2022-10-16T09:41:52;13.38;;;7.70;;
39896;SDS011;25567;48.276;14.242;2022-10-16T09:46:47;16.30;;;8.02;;
39896;SDS011;25567;48.276;14.242;2022-10-16T09:49:22;10.55;;;6.72;;
39896;SDS011;25567;48.276;14.242;2022-10-16T09:51:50;10.43;;;7.63;;
39896;SDS011;25567;48.276;14.242;2022-10-16T09:54:30;12.65;;;7.38;;
39896;SDS011;25567;48.276;14.242;2022-10-16T09:57:06;11.07;;;7.20;;
39896;SDS011;25567;48.276;14.242;2022-10-16T09:59:34;15.50;;;7.13;;
39896;SDS011;25567;48.276;14.242;2022-10-16T10:02:01;11.50;;;6.80;;
39896;SDS011;25567;48.276;14.242;2022-10-16T10:04:37;11.00;;;6.40;;
39896;SDS011;25567;48.276;14.242;2022-10-16T10:07:15;15.20;;;5.90;;
39896;SDS011;25567;48.276;14.242;2022-10-16T10:09:45;17.67;;;5.28;;
39896;SDS011;25567;48.276;14.242;2022-10-16T10:14:56;9.25;;;4.85;;
39896;SDS011;25567;48.276;14.242;2022-10-16T10:17:30;6.45;;;4.43;;
39896;SDS011;25567;48.276;14.242;2022-10-16T10:19:57;9.30;;;5.05;;
39896;SDS011;25567;48.276;14.242;2022-10-16T10:24:56;13.57;;;4.95;;
39896;SDS011;25567;48.276;14.242;2022-10-16T10:27:26;14.20;;;4.95;;
39896;SDS011;25567;48.276;14.242;2022-10-16T10:35:30;16.38;;;5.72;;
39896;SDS011;25567;48.276;14.242;2022-10-16T10:40:48;13.98;;;5.22;;
39896;SDS011;25567;48.276;14.242;2022-10-16T10:45:57;11.63;;;5.25;;
39896;SDS011;25567;48.276;14.242;2022-10-16T10:54:19;12.98;;;5.00;;
39896;SDS011;25567;48.276;14.242;2022-10-16T10:57:02;19.20;;;7.35;;
39896;SDS011;25567;48.276;14.242;2022-10-16T10:59:39;19.38;;;6.30;;
39896;SDS011;25567;48.276;14.242;2022-10-16T11:02:18;20.65;;;7.45;;
39896;SDS011;25567;48.276;14.242;2022-10-16T11:09:56;19.48;;;7.55;;
39896;SDS011;25567;48.276;14.242;2022-10-16T11:12:30;20.23;;;6.53;;
39896;SDS011;25567;48.276;14.242;2022-10-16T11:15:14;13.80;;;6.53;;
39896;SDS011;25567;48.276;14.242;2022-10-16T11:17:47;15.90;;;5.93;;
39896;SDS011;25567;48.276;14.242;2022-10-16T11:23:02;13.57;;;4.88;;
39896;SDS011;25567;48.276;14.242;2022-10-16T11:25:33;9.20;;;4.20;;
39896;SDS011;25567;48.276;14.242;2022-10-16T11:28:03;12.85;;;4.07;;
39896;SDS011;25567;48.276;14.242;2022-10-16T11:30:39;9.43;;;3.90;;
39896;SDS011;25567;48.276;14.242;2022-10-16T11:38:56;9.27;;;2.78;;
39896;SDS011;25567;48.276;14.242;2022-10-16T11:49:58;8.13;;;3.00;;
39896;SDS011;25567;48.276;14.242;2022-10-16T11:52:31;7.53;;;2.78;;
39896;SDS011;25567;48.276;14.242;2022-10-16T11:57:46;11.95;;;3.08;;
39896;SDS011;25567;48.276;14.242;2022-10-16T12:00:24;6.88;;;2.45;;
39896;SDS011;25567;48.276;14.242;2022-10-16T12:05:33;3.42;;;1.92;;
39896;SDS011;25567;48.276;14.242;2022-10-16T12:08:15;12.68;;;2.45;;
39896;SDS011;25567;48.276;14.242;2022-10-16T12:10:44;9.93;;;2.67;;
39896;SDS011;25567;48.276;14.242;2022-10-16T12:18:39;5.22;;;1.77;;
39896;SDS011;25567;48.276;14.242;2022-10-16T12:21:06;5.85;;;2.25;;
39896;SDS011;25567;48.276;14.242;2022-10-16T12:23:38;7.05;;;2.45;;
39896;SDS011;25567;48.276;14.242;2022-10-16T12:26:13;5.38;;;2.00;;
39896;SDS011;25567;48.276;14.242;2022-10-16T12:28:40;3.78;;;1.80;;
39896;SDS011;25567;48.276;14.242;2022-10-16T12:31:08;11.20;;;1.80;;
39896;SDS011;25567;48.276;14.242;2022-10-16T12:33:40;9.23;;;2.75;;
39896;SDS011;25567;48.276;14.242;2022-10-16T12:36:16;7.15;;;2.08;;
39896;SDS011;25567;48.276;14.242;2022-10-16T12:38:54;5.25;;;1.90;;
39896;SDS011;25567;48.276;14.242;2022-10-16T12:41:26;3.45;;;1.60;;
39896;SDS011;25567;48.276;14.242;2022-10-16T12:43:53;4.10;;;1.30;;
39896;SDS011;25567;48.276;14.242;2022-10-16T12:46:22;2.20;;;1.02;;
39896;SDS011;25567;48.276;14.242;2022-10-16T12:51:47;3.22;;;1.23;;
39896;SDS011;25567;48.276;14.242;2022-10-16T12:54:15;2.70;;;1.13;;
39896;SDS011;25567;48.276;14.242;2022-10-16T13:07:59;4.57;;;1.30;;
39896;SDS011;25567;48.276;14.242;2022-10-16T13:18:32;4.78;;;1.55;;
39896;SDS011;25567;48.276;14.242;2022-10-16T13:21:18;5.85;;;1.60;;
39896;SDS011;25567;48.276;14.242;2022-10-16T13:26:46;2.88;;;0.93;;
39896;SDS011;25567;48.276;14.242;2022-10-16T13:29:30;1.35;;;0.85;;
39896;SDS011;25567;48.276;14.242;2022-10-16T13:32:06;7.20;;;0.88;;
39896;SDS011;25567;48.276;14.242;2022-10-16T13:34:46;5.05;;;1.20;;
39896;SDS011;25567;48.276;14.242;2022-10-16T13:39:43;2.53;;;0.93;;
39896;SDS011;25567;48.276;14.242;2022-10-16T13:42:12;1.75;;;0.90;;
39896;SDS011;25567;48.276;14.242;2022-10-16T13:44:54;3.65;;;0.60;;
39896;SDS011;25567;48.276;14.242;2022-10-16T13:47:24;4.95;;;0.82;;
39896;SDS011;25567;48.276;14.242;2022-10-16T13:50:01;1.40;;;0.85;;
39896;SDS011;25567;48.276;14.242;2022-10-16T13:52:30;2.40;;;0.90;;
39896;SDS011;25567;48.276;14.242;2022-10-16T13:54:57;3.13;;;0.70;;
39896;SDS011;25567;48.276;14.242;2022-10-16T13:57:27;2.42;;;0.70;;
39896;SDS011;25567;48.276;14.242;2022-10-16T13:59:54;0.57;;;0.47;;
39896;SDS011;25567;48.276;14.242;2022-10-16T14:02:30;0.65;;;0.55;;
39896;SDS011;25567;48.276;14.242;2022-10-16T14:05:02;7.47;;;1.10;;
39896;SDS011;25567;48.276;14.242;2022-10-16T14:07:35;1.55;;;0.90;;
39896;SDS011;25567;48.276;14.242;2022-10-16T14:10:04;1.20;;;0.70;;
39896;SDS011;25567;48.276;14.242;2022-10-16T14:12:33;1.80;;;0.50;;
39896;SDS011;25567;48.276;14.242;2022-10-16T14:15:00;1.20;;;0.60;;
39896;SDS011;25567;48.276;14.242;2022-10-16T14:17:28;1.88;;;0.77;;
39896;SDS011;25567;48.276;14.242;2022-10-16T14:19:58;0.90;;;0.65;;
39896;SDS011;25567;48.276;14.242;2022-10-16T14:22:33;5.05;;;0.75;;
39896;SDS011;25567;48.276;14.242;2022-10-16T14:27:55;1.13;;;0.90;;
39896;SDS011;25567;48.276;14.242;2022-10-16T14:30:32;1.88;;;1.10;;
39896;SDS011;25567;48.276;14.242;2022-10-16T14:35:33;1.50;;;0.77;;
39896;SDS011;25567;48.276;14.242;2022-10-16T14:38:02;1.45;;;0.90;;
39896;SDS011;25567;48.276;14.242;2022-10-16T14:40:32;1.42;;;0.73;;
39896;SDS011;25567;48.276;14.242;2022-10-16T14:43:01;3.72;;;1.08;;
39896;SDS011;25567;48.276;14.242;2022-10-16T14:45:30;3.00;;;1.17;;
39896;SDS011;25567;48.276;14.242;2022-10-16T14:48:00;3.83;;;1.20;;
39896;SDS011;25567;48.276;14.242;2022-10-16T14:50:30;2.90;;;1.10;;
39896;SDS011;25567;48.276;14.242;2022-10-16T14:52:57;8.48;;;1.35;;
39896;SDS011;25567;48.276;14.242;2022-10-16T14:55:24;2.30;;;1.00;;
39896;SDS011;25567;48.276;14.242;2022-10-16T14:57:51;1.63;;;1.08;;
39896;SDS011;25567;48.276;14.242;2022-10-16T15:00:25;11.40;;;1.38;;
39896;SDS011;25567;48.276;14.242;2022-10-16T15:02:52;3.78;;;1.23;;
39896;SDS011;25567;48.276;14.242;2022-10-16T15:05:21;1.48;;;1.10;;
39896;SDS011;25567;48.276;14.242;2022-10-16T15:07:48;3.53;;;1.42;;
39896;SDS011;25567;48.276;14.242;2022-10-16T15:10:16;6.88;;;1.27;;
39896;SDS011;25567;48.276;14.242;2022-10-16T15:12:43;2.70;;;1.30;;
39896;SDS011;25567;48.276;14.242;2022-10-16T15:17:39;1.92;;;1.10;;
39896;SDS011;25567;48.276;14.242;2022-10-16T15:20:05;6.35;;;1.17;;
39896;SDS011;25567;48.276;14.242;2022-10-16T15:22:32;1.95;;;1.10;;
39896;SDS011;25567;48.276;14.242;2022-10-16T15:24:59;4.28;;;1.40;;
39896;SDS011;25567;48.276;14.242;2022-10-16T15:27:26;4.95;;;1.88;;
39896;SDS011;25567;48.276;14.242;2022-10-16T15:29:53;3.50;;;1.17;;
39896;SDS011;25567;48.276;14.242;2022-10-16T15:32:20;9.77;;;1.70;;
39896;SDS011;25567;48.276;14.242;2022-10-16T15:34:46;3.58;;;1.45;;
39896;SDS011;25567;48.276;14.242;2022-10-16T15:37:13;11.38;;;1.60;;
39896;SDS011;25567;48.276;14.242;2022-10-16T15:39:40;14.32;;;1.83;;
39896;SDS011;25567;48.276;14.242;2022-10-16T15:42:06;5.38;;;1.30;;
39896;SDS011;25567;48.276;14.242;2022-10-16T15:44:33;8.63;;;1.55;;
39896;SDS011;25567;48.276;14.242;2022-10-16T15:47:00;6.18;;;1.92;;
39896;SDS011;25567;48.276;14.242;2022-10-16T15:49:27;6.22;;;1.90;;
39896;SDS011;25567;48.276;14.242;2022-10-16T15:51:54;7.95;;;2.00;;
39896;SDS011;25567;48.276;14.242;2022-10-16T15:54:21;5.53;;;1.63;;
39896;SDS011;25567;48.276;14.242;2022-10-16T15:56:49;5.93;;;1.45;;
39896;SDS011;25567;48.276;14.242;2022-10-16T15:59:15;6.00;;;2.60;;
39896;SDS011;25567;48.276;14.242;2022-10-16T16:01:42;8.63;;;2.55;;
39896;SDS011;25567;48.276;14.242;2022-10-16T16:04:09;5.28;;;2.03;;
39896;SDS011;25567;48.276;14.242;2022-10-16T16:06:45;6.82;;;1.88;;
39896;SDS011;25567;48.276;14.242;2022-10-16T16:09:12;5.93;;;1.90;;
39896;SDS011;25567;48.276;14.242;2022-10-16T16:11:41;12.93;;;2.67;;
39896;SDS011;25567;48.276;14.242;2022-10-16T16:14:10;7.88;;;2.45;;
39896;SDS011;25567;48.276;14.242;2022-10-16T16:16:39;15.68;;;2.78;;
39896;SDS011;25567;48.276;14.242;2022-10-16T16:19:05;7.72;;;2.80;;
39896;SDS011;25567;48.276;14.242;2022-10-16T16:21:37;12.90;;;2.50;;
39896;SDS011;25567;48.276;14.242;2022-10-16T16:24:04;11.13;;;2.75;;
39896;SDS011;25567;48.276;14.242;2022-10-16T16:26:34;10.77;;;2.40;;
39896;SDS011;25567;48.276;14.242;2022-10-16T16:29:03;16.27;;;2.70;;
39896;SDS011;25567;48.276;14.242;2022-10-16T16:31:31;9.35;;;2.58;;
39896;SDS011;25567;48.276;14.242;2022-10-16T16:33:58;9.68;;;2.85;;
39896;SDS011;25567;48.276;14.242;2022-10-16T16:36:25;8.82;;;2.50;;
39896;SDS011;25567;48.276;14.242;2022-10-16T16:38:52;14.55;;;3.65;;
39896;SDS011;25567;48.276;14.242;2022-10-16T16:41:21;19.45;;;3.97;;
39896;SDS011;25567;48.276;14.242;2022-10-16T16:43:49;11.10;;;3.42;;